sensor_id;sensor_type;location;lat;lon;timestamp;P1;durP1;ratioP1;P2;durP2;ratioP2
19566;SDS011;9930;49.240;8.548;2024-02-15T00:00:14;2.28;;;2.08;;
19566;SDS011;9930;49.240;8.548;2024-02-15T00:02:42;2.33;;;2.13;;
19566;SDS011;9930;49.240;8.548;2024-02-15T00:05:10;2.72;;;2.00;;
19566;SDS011;9930;49.240;8.548;2024-02-15T00:07:37;2.20;;;2.00;;
19566;SDS011;9930;49.240;8.548;2024-02-15T00:10:04;2.33;;;2.13;;
19566;SDS011;9930;49.240;8.548;2024-02-15T00:12:33;2.17;;;1.98;;
19566;SDS011;9930;49.240;8.548;2024-02-15T00:15:03;2.53;;;2.08;;
19566;SDS011;9930;49.240;8.548;2024-02-15T00:17:33;2.15;;;1.95;;
19566;SDS011;9930;49.240;8.548;2024-02-15T00:20:01;2.10;;;2.00;;
19566;SDS011;9930;49.240;8.548;2024-02-15T00:22:37;1.83;;;1.73;;
19566;SDS011;9930;49.240;8.548;2024-02-15T00:25:07;1.92;;;1.70;;
19566;SDS011;9930;49.240;8.548;2024-02-15T00:27:37;2.65;;;2.20;;
19566;SDS011;9930;49.240;8.548;2024-02-15T00:30:03;2.13;;;1.88;;
19566;SDS011;9930;49.240;8.548;2024-02-15T00:32:33;3.80;;;3.38;;
19566;SDS011;9930;49.240;8.548;2024-02-15T00:35:07;5.72;;;3.65;;
19566;SDS011;9930;49.240;8.548;2024-02-15T00:37:37;4.57;;;3.50;;
19566;SDS011;9930;49.240;8.548;2024-02-15T00:40:06;3.20;;;2.90;;
19566;SDS011;9930;49.240;8.548;2024-02-15T00:42:33;4.00;;;3.00;;
19566;SDS011;9930;49.240;8.548;2024-02-15T00:45:05;4.05;;;2.80;;
19566;SDS011;9930;49.240;8.548;2024-02-15T00:47:34;2.53;;;2.33;;
19566;SDS011;9930;49.240;8.548;2024-02-15T00:50:07;2.67;;;2.28;;
19566;SDS011;9930;49.240;8.548;2024-02-15T00:52:36;3.13;;;2.45;;
19566;SDS011;9930;49.240;8.548;2024-02-15T00:55:03;3.95;;;2.55;;
19566;SDS011;9930;49.240;8.548;2024-02-15T00:57:32;2.35;;;2.03;;
19566;SDS011;9930;49.240;8.548;2024-02-15T00:59:58;2.97;;;2.00;;
19566;SDS011;9930;49.240;8.548;2024-02-15T01:02:24;2.42;;;2.20;;
19566;SDS011;9930;49.240;8.548;2024-02-15T01:04:51;2.40;;;2.20;;
19566;SDS011;9930;49.240;8.548;2024-02-15T01:07:18;2.70;;;1.92;;
19566;SDS011;9930;49.240;8.548;2024-02-15T01:09:44;2.17;;;1.98;;
19566;SDS011;9930;49.240;8.548;2024-02-15T01:12:10;3.35;;;2.00;;
19566;SDS011;9930;49.240;8.548;2024-02-15T01:14:37;2.42;;;1.88;;
19566;SDS011;9930;49.240;8.548;2024-02-15T01:17:03;3.10;;;2.22;;
19566;SDS011;9930;49.240;8.548;2024-02-15T01:19:31;2.88;;;2.20;;
19566;SDS011;9930;49.240;8.548;2024-02-15T01:21:56;2.20;;;2.00;;
19566;SDS011;9930;49.240;8.548;2024-02-15T01:24:23;2.35;;;2.15;;
19566;SDS011;9930;49.240;8.548;2024-02-15T01:26:50;2.60;;;2.40;;
19566;SDS011;9930;49.240;8.548;2024-02-15T01:29:15;2.40;;;2.20;;
19566;SDS011;9930;49.240;8.548;2024-02-15T01:31:42;3.80;;;2.75;;
19566;SDS011;9930;49.240;8.548;2024-02-15T01:34:08;2.60;;;2.40;;
19566;SDS011;9930;49.240;8.548;2024-02-15T01:36:34;2.90;;;2.25;;
19566;SDS011;9930;49.240;8.548;2024-02-15T01:39:05;2.55;;;2.30;;
19566;SDS011;9930;49.240;8.548;2024-02-15T01:41:33;2.58;;;2.20;;
19566;SDS011;9930;49.240;8.548;2024-02-15T01:43:59;2.50;;;2.30;;
19566;SDS011;9930;49.240;8.548;2024-02-15T01:46:25;2.90;;;2.10;;
19566;SDS011;9930;49.240;8.548;2024-02-15T01:48:51;2.53;;;2.30;;
19566;SDS011;9930;49.240;8.548;2024-02-15T01:51:16;2.85;;;2.22;;
19566;SDS011;9930;49.240;8.548;2024-02-15T01:53:43;2.03;;;1.85;;
19566;SDS011;9930;49.240;8.548;2024-02-15T01:56:10;2.50;;;2.30;;
19566;SDS011;9930;49.240;8.548;2024-02-15T01:58:39;3.22;;;2.63;;
19566;SDS011;9930;49.240;8.548;2024-02-15T02:01:08;2.55;;;2.20;;
19566;SDS011;9930;49.240;8.548;2024-02-15T02:03:37;3.80;;;2.80;;
19566;SDS011;9930;49.240;8.548;2024-02-15T02:06:05;4.30;;;2.50;;
19566;SDS011;9930;49.240;8.548;2024-02-15T02:08:37;2.60;;;2.40;;
19566;SDS011;9930;49.240;8.548;2024-02-15T02:11:03;2.80;;;2.60;;
19566;SDS011;9930;49.240;8.548;2024-02-15T02:13:31;3.60;;;2.20;;
19566;SDS011;9930;49.240;8.548;2024-02-15T02:15:56;2.72;;;2.28;;
19566;SDS011;9930;49.240;8.548;2024-02-15T02:18:22;2.90;;;2.38;;
19566;SDS011;9930;49.240;8.548;2024-02-15T02:20:50;3.17;;;2.45;;
19566;SDS011;9930;49.240;8.548;2024-02-15T02:23:16;2.83;;;2.60;;
19566;SDS011;9930;49.240;8.548;2024-02-15T02:25:48;2.28;;;2.08;;
19566;SDS011;9930;49.240;8.548;2024-02-15T02:28:14;2.83;;;2.45;;
19566;SDS011;9930;49.240;8.548;2024-02-15T02:30:43;2.83;;;2.40;;
19566;SDS011;9930;49.240;8.548;2024-02-15T02:33:13;3.83;;;2.47;;
19566;SDS011;9930;49.240;8.548;2024-02-15T02:35:44;3.20;;;2.55;;
19566;SDS011;9930;49.240;8.548;2024-02-15T02:38:11;2.67;;;2.40;;
19566;SDS011;9930;49.240;8.548;2024-02-15T02:40:38;2.95;;;2.40;;
19566;SDS011;9930;49.240;8.548;2024-02-15T02:43:04;2.65;;;2.42;;
19566;SDS011;9930;49.240;8.548;2024-02-15T02:45:32;3.00;;;2.42;;
19566;SDS011;9930;49.240;8.548;2024-02-15T02:47:58;2.83;;;2.30;;
19566;SDS011;9930;49.240;8.548;2024-02-15T02:50:24;3.15;;;2.58;;
19566;SDS011;9930;49.240;8.548;2024-02-15T02:52:50;2.75;;;2.40;;
19566;SDS011;9930;49.240;8.548;2024-02-15T02:55:16;2.90;;;2.58;;
19566;SDS011;9930;49.240;8.548;2024-02-15T02:57:42;2.95;;;2.33;;
19566;SDS011;9930;49.240;8.548;2024-02-15T03:00:12;5.47;;;2.60;;
19566;SDS011;9930;49.240;8.548;2024-02-15T03:02:41;2.70;;;2.38;;
19566;SDS011;9930;49.240;8.548;2024-02-15T03:05:08;2.70;;;2.28;;
19566;SDS011;9930;49.240;8.548;2024-02-15T03:07:37;2.60;;;2.40;;
19566;SDS011;9930;49.240;8.548;2024-02-15T03:10:38;3.17;;;2.60;;
19566;SDS011;9930;49.240;8.548;2024-02-15T03:13:05;3.03;;;1.90;;
19566;SDS011;9930;49.240;8.548;2024-02-15T03:15:37;3.70;;;2.38;;
19566;SDS011;9930;49.240;8.548;2024-02-15T03:18:03;2.88;;;2.58;;
19566;SDS011;9930;49.240;8.548;2024-02-15T03:20:33;2.92;;;2.35;;
19566;SDS011;9930;49.240;8.548;2024-02-15T03:23:03;3.25;;;2.55;;
19566;SDS011;9930;49.240;8.548;2024-02-15T03:25:29;3.70;;;2.38;;
19566;SDS011;9930;49.240;8.548;2024-02-15T03:27:56;3.35;;;2.53;;
19566;SDS011;9930;49.240;8.548;2024-02-15T03:30:24;3.35;;;2.70;;
19566;SDS011;9930;49.240;8.548;2024-02-15T03:32:52;2.47;;;2.28;;
19566;SDS011;9930;49.240;8.548;2024-02-15T03:35:19;2.97;;;2.60;;
19566;SDS011;9930;49.240;8.548;2024-02-15T03:37:47;2.30;;;2.10;;
19566;SDS011;9930;49.240;8.548;2024-02-15T03:40:17;4.30;;;2.58;;
19566;SDS011;9930;49.240;8.548;2024-02-15T03:42:44;3.50;;;2.80;;
19566;SDS011;9930;49.240;8.548;2024-02-15T03:45:11;2.88;;;2.20;;
19566;SDS011;9930;49.240;8.548;2024-02-15T03:47:38;3.10;;;2.20;;
19566;SDS011;9930;49.240;8.548;2024-02-15T03:50:06;2.95;;;2.33;;
19566;SDS011;9930;49.240;8.548;2024-02-15T03:52:37;2.90;;;2.47;;
19566;SDS011;9930;49.240;8.548;2024-02-15T03:55:04;3.63;;;2.42;;
19566;SDS011;9930;49.240;8.548;2024-02-15T03:57:33;3.22;;;2.42;;
19566;SDS011;9930;49.240;8.548;2024-02-15T03:59:59;2.45;;;2.20;;
19566;SDS011;9930;49.240;8.548;2024-02-15T04:02:25;2.47;;;2.25;;
19566;SDS011;9930;49.240;8.548;2024-02-15T04:04:52;3.55;;;2.50;;
19566;SDS011;9930;49.240;8.548;2024-02-15T04:07:19;3.45;;;2.50;;
19566;SDS011;9930;49.240;8.548;2024-02-15T04:09:46;2.60;;;2.40;;
19566;SDS011;9930;49.240;8.548;2024-02-15T04:12:13;4.03;;;2.60;;
19566;SDS011;9930;49.240;8.548;2024-02-15T04:14:39;2.75;;;2.42;;
19566;SDS011;9930;49.240;8.548;2024-02-15T04:17:07;3.33;;;2.30;;
19566;SDS011;9930;49.240;8.548;2024-02-15T04:19:33;3.28;;;2.35;;
19566;SDS011;9930;49.240;8.548;2024-02-15T04:21:59;3.97;;;2.72;;
19566;SDS011;9930;49.240;8.548;2024-02-15T04:24:26;3.58;;;2.60;;
19566;SDS011;9930;49.240;8.548;2024-02-15T04:26:51;3.72;;;2.53;;
19566;SDS011;9930;49.240;8.548;2024-02-15T04:29:17;3.38;;;2.63;;
19566;SDS011;9930;49.240;8.548;2024-02-15T04:31:45;2.95;;;2.55;;
19566;SDS011;9930;49.240;8.548;2024-02-15T04:34:17;4.15;;;2.60;;
19566;SDS011;9930;49.240;8.548;2024-02-15T04:36:47;3.65;;;2.30;;
19566;SDS011;9930;49.240;8.548;2024-02-15T04:39:16;2.95;;;2.50;;
19566;SDS011;9930;49.240;8.548;2024-02-15T04:41:55;3.33;;;2.53;;
19566;SDS011;9930;49.240;8.548;2024-02-15T04:44:21;2.70;;;2.50;;
19566;SDS011;9930;49.240;8.548;2024-02-15T04:46:47;3.00;;;2.65;;
19566;SDS011;9930;49.240;8.548;2024-02-15T04:49:14;2.70;;;2.50;;
19566;SDS011;9930;49.240;8.548;2024-02-15T04:51:40;3.03;;;2.72;;
19566;SDS011;9930;49.240;8.548;2024-02-15T04:54:07;3.33;;;2.65;;
19566;SDS011;9930;49.240;8.548;2024-02-15T04:56:42;3.00;;;2.55;;
19566;SDS011;9930;49.240;8.548;2024-02-15T04:59:10;4.63;;;2.72;;
19566;SDS011;9930;49.240;8.548;2024-02-15T05:01:40;3.63;;;2.70;;
19566;SDS011;9930;49.240;8.548;2024-02-15T05:04:10;3.50;;;2.60;;
19566;SDS011;9930;49.240;8.548;2024-02-15T05:06:38;3.25;;;2.80;;
19566;SDS011;9930;49.240;8.548;2024-02-15T05:09:06;3.80;;;2.58;;
19566;SDS011;9930;49.240;8.548;2024-02-15T05:11:39;2.33;;;2.10;;
19566;SDS011;9930;49.240;8.548;2024-02-15T05:14:07;2.75;;;2.47;;
19566;SDS011;9930;49.240;8.548;2024-02-15T05:16:37;3.63;;;2.65;;
19566;SDS011;9930;49.240;8.548;2024-02-15T05:19:08;4.20;;;2.70;;
19566;SDS011;9930;49.240;8.548;2024-02-15T05:21:37;2.78;;;2.58;;
19566;SDS011;9930;49.240;8.548;2024-02-15T05:24:04;3.55;;;2.60;;
19566;SDS011;9930;49.240;8.548;2024-02-15T05:26:33;3.22;;;2.75;;
19566;SDS011;9930;49.240;8.548;2024-02-15T05:28:59;3.30;;;2.88;;
19566;SDS011;9930;49.240;8.548;2024-02-15T05:31:25;3.38;;;2.97;;
19566;SDS011;9930;49.240;8.548;2024-02-15T05:33:51;3.63;;;3.00;;
19566;SDS011;9930;49.240;8.548;2024-02-15T05:36:19;3.33;;;3.03;;
19566;SDS011;9930;49.240;8.548;2024-02-15T05:38:52;3.30;;;2.95;;
19566;SDS011;9930;49.240;8.548;2024-02-15T05:41:19;4.22;;;2.80;;
19566;SDS011;9930;49.240;8.548;2024-02-15T05:43:46;2.63;;;2.42;;
19566;SDS011;9930;49.240;8.548;2024-02-15T05:46:18;3.22;;;2.60;;
19566;SDS011;9930;49.240;8.548;2024-02-15T05:48:48;3.20;;;2.47;;
19566;SDS011;9930;49.240;8.548;2024-02-15T05:51:14;3.05;;;2.67;;
19566;SDS011;9930;49.240;8.548;2024-02-15T05:53:40;3.35;;;2.70;;
19566;SDS011;9930;49.240;8.548;2024-02-15T05:56:08;2.70;;;2.50;;
19566;SDS011;9930;49.240;8.548;2024-02-15T05:58:38;4.45;;;2.85;;
19566;SDS011;9930;49.240;8.548;2024-02-15T06:01:11;3.80;;;2.60;;
19566;SDS011;9930;49.240;8.548;2024-02-15T06:03:38;3.20;;;2.53;;
19566;SDS011;9930;49.240;8.548;2024-02-15T06:06:07;3.33;;;2.80;;
19566;SDS011;9930;49.240;8.548;2024-02-15T06:08:34;2.75;;;2.55;;
19566;SDS011;9930;49.240;8.548;2024-02-15T06:11:03;4.13;;;2.42;;
19566;SDS011;9930;49.240;8.548;2024-02-15T06:13:31;2.55;;;2.35;;
19566;SDS011;9930;49.240;8.548;2024-02-15T06:15:57;3.45;;;2.38;;
19566;SDS011;9930;49.240;8.548;2024-02-15T06:18:29;4.05;;;2.30;;
19566;SDS011;9930;49.240;8.548;2024-02-15T06:20:58;2.90;;;2.70;;
19566;SDS011;9930;49.240;8.548;2024-02-15T06:23:25;3.72;;;3.00;;
19566;SDS011;9930;49.240;8.548;2024-02-15T06:25:55;3.20;;;2.90;;
19566;SDS011;9930;49.240;8.548;2024-02-15T06:28:23;3.40;;;2.90;;
19566;SDS011;9930;49.240;8.548;2024-02-15T06:31:07;4.32;;;3.53;;
19566;SDS011;9930;49.240;8.548;2024-02-15T06:33:53;3.78;;;3.00;;
19566;SDS011;9930;49.240;8.548;2024-02-15T06:36:48;3.83;;;3.08;;
19566;SDS011;9930;49.240;8.548;2024-02-15T06:39:36;4.10;;;2.58;;
19566;SDS011;9930;49.240;8.548;2024-02-15T06:42:06;4.07;;;2.47;;
19566;SDS011;9930;49.240;8.548;2024-02-15T06:44:33;3.50;;;2.35;;
19566;SDS011;9930;49.240;8.548;2024-02-15T06:46:58;2.40;;;2.13;;
19566;SDS011;9930;49.240;8.548;2024-02-15T06:49:24;2.97;;;2.20;;
19566;SDS011;9930;49.240;8.548;2024-02-15T06:51:50;2.55;;;2.25;;
19566;SDS011;9930;49.240;8.548;2024-02-15T06:54:16;3.03;;;2.55;;
19566;SDS011;9930;49.240;8.548;2024-02-15T06:56:43;2.92;;;2.13;;
19566;SDS011;9930;49.240;8.548;2024-02-15T06:59:13;2.58;;;2.33;;
19566;SDS011;9930;49.240;8.548;2024-02-15T07:01:40;2.60;;;2.30;;
19566;SDS011;9930;49.240;8.548;2024-02-15T07:04:08;5.20;;;3.30;;
19566;SDS011;9930;49.240;8.548;2024-02-15T07:06:37;13.20;;;6.57;;
19566;SDS011;9930;49.240;8.548;2024-02-15T07:09:04;8.40;;;5.50;;
19566;SDS011;9930;49.240;8.548;2024-02-15T07:11:37;5.63;;;3.65;;
19566;SDS011;9930;49.240;8.548;2024-02-15T07:14:04;4.78;;;3.33;;
19566;SDS011;9930;49.240;8.548;2024-02-15T07:16:33;4.00;;;3.03;;
19566;SDS011;9930;49.240;8.548;2024-02-15T07:18:59;3.42;;;3.00;;
19566;SDS011;9930;49.240;8.548;2024-02-15T07:21:25;5.05;;;2.63;;
19566;SDS011;9930;49.240;8.548;2024-02-15T07:23:52;3.92;;;2.50;;
19566;SDS011;9930;49.240;8.548;2024-02-15T07:26:20;3.42;;;2.80;;
19566;SDS011;9930;49.240;8.548;2024-02-15T07:28:49;2.80;;;2.42;;
19566;SDS011;9930;49.240;8.548;2024-02-15T07:31:18;3.83;;;2.53;;
19566;SDS011;9930;49.240;8.548;2024-02-15T07:33:46;3.08;;;2.60;;
19566;SDS011;9930;49.240;8.548;2024-02-15T07:36:21;3.33;;;2.60;;
19566;SDS011;9930;49.240;8.548;2024-02-15T07:38:48;3.00;;;2.30;;
19566;SDS011;9930;49.240;8.548;2024-02-15T07:41:17;2.35;;;1.85;;
19566;SDS011;9930;49.240;8.548;2024-02-15T07:43:44;4.47;;;2.67;;
19566;SDS011;9930;49.240;8.548;2024-02-15T07:46:12;4.90;;;4.40;;
19566;SDS011;9930;49.240;8.548;2024-02-15T07:48:44;5.78;;;4.85;;
19566;SDS011;9930;49.240;8.548;2024-02-15T07:51:17;6.03;;;5.43;;
19566;SDS011;9930;49.240;8.548;2024-02-15T07:53:48;8.48;;;7.18;;
19566;SDS011;9930;49.240;8.548;2024-02-15T07:56:14;8.27;;;7.45;;
19566;SDS011;9930;49.240;8.548;2024-02-15T07:58:41;9.45;;;6.28;;
19566;SDS011;9930;49.240;8.548;2024-02-15T08:01:16;5.70;;;4.93;;
19566;SDS011;9930;49.240;8.548;2024-02-15T08:03:42;6.90;;;5.30;;
19566;SDS011;9930;49.240;8.548;2024-02-15T08:06:13;5.05;;;3.90;;
19566;SDS011;9930;49.240;8.548;2024-02-15T08:08:41;4.85;;;4.45;;
19566;SDS011;9930;49.240;8.548;2024-02-15T08:11:10;4.40;;;4.00;;
19566;SDS011;9930;49.240;8.548;2024-02-15T08:13:43;6.93;;;3.85;;
19566;SDS011;9930;49.240;8.548;2024-02-15T08:16:19;4.15;;;3.75;;
19566;SDS011;9930;49.240;8.548;2024-02-15T08:18:48;4.85;;;4.13;;
19566;SDS011;9930;49.240;8.548;2024-02-15T08:21:17;3.83;;;3.22;;
19566;SDS011;9930;49.240;8.548;2024-02-15T08:23:49;4.60;;;3.72;;
19566;SDS011;9930;49.240;8.548;2024-02-15T08:26:15;7.22;;;4.35;;
19566;SDS011;9930;49.240;8.548;2024-02-15T08:28:41;5.22;;;4.22;;
19566;SDS011;9930;49.240;8.548;2024-02-15T08:31:08;5.05;;;4.28;;
19566;SDS011;9930;49.240;8.548;2024-02-15T08:33:37;4.75;;;4.22;;
19566;SDS011;9930;49.240;8.548;2024-02-15T08:36:04;6.07;;;4.95;;
19566;SDS011;9930;49.240;8.548;2024-02-15T08:38:36;6.20;;;5.28;;
19566;SDS011;9930;49.240;8.548;2024-02-15T08:41:02;4.90;;;4.43;;
19566;SDS011;9930;49.240;8.548;2024-02-15T08:43:33;6.32;;;4.88;;
19566;SDS011;9930;49.240;8.548;2024-02-15T08:45:59;6.35;;;3.70;;
19566;SDS011;9930;49.240;8.548;2024-02-15T08:48:25;3.78;;;3.30;;
19566;SDS011;9930;49.240;8.548;2024-02-15T08:50:51;5.20;;;3.50;;
19566;SDS011;9930;49.240;8.548;2024-02-15T08:53:17;3.80;;;2.55;;
19566;SDS011;9930;49.240;8.548;2024-02-15T08:55:47;3.67;;;2.70;;
19566;SDS011;9930;49.240;8.548;2024-02-15T08:58:13;3.33;;;2.35;;
19566;SDS011;9930;49.240;8.548;2024-02-15T09:00:39;2.58;;;2.13;;
19566;SDS011;9930;49.240;8.548;2024-02-15T09:03:09;3.85;;;2.30;;
19566;SDS011;9930;49.240;8.548;2024-02-15T09:05:38;2.30;;;2.10;;
19566;SDS011;9930;49.240;8.548;2024-02-15T09:08:07;2.95;;;2.35;;
19566;SDS011;9930;49.240;8.548;2024-02-15T09:10:34;3.55;;;2.35;;
19566;SDS011;9930;49.240;8.548;2024-02-15T09:13:06;2.75;;;2.08;;
19566;SDS011;9930;49.240;8.548;2024-02-15T09:15:34;3.40;;;2.17;;
19566;SDS011;9930;49.240;8.548;2024-02-15T09:18:02;4.55;;;2.85;;
19566;SDS011;9930;49.240;8.548;2024-02-15T09:20:28;3.17;;;2.22;;
19566;SDS011;9930;49.240;8.548;2024-02-15T09:22:56;3.20;;;2.30;;
19566;SDS011;9930;49.240;8.548;2024-02-15T09:25:22;2.85;;;2.00;;
19566;SDS011;9930;49.240;8.548;2024-02-15T09:27:49;2.60;;;2.10;;
19566;SDS011;9930;49.240;8.548;2024-02-15T09:30:15;3.53;;;2.70;;
19566;SDS011;9930;49.240;8.548;2024-02-15T09:32:42;4.30;;;3.00;;
19566;SDS011;9930;49.240;8.548;2024-02-15T09:35:09;5.63;;;4.38;;
19566;SDS011;9930;49.240;8.548;2024-02-15T09:37:38;3.72;;;2.70;;
19566;SDS011;9930;49.240;8.548;2024-02-15T09:40:15;3.95;;;2.72;;
19566;SDS011;9930;49.240;8.548;2024-02-15T09:42:46;2.85;;;2.22;;
19566;SDS011;9930;49.240;8.548;2024-02-15T09:45:13;2.00;;;1.80;;
19566;SDS011;9930;49.240;8.548;2024-02-15T09:47:43;1.83;;;1.73;;
19566;SDS011;9930;49.240;8.548;2024-02-15T09:50:13;2.13;;;1.60;;
19566;SDS011;9930;49.240;8.548;2024-02-15T09:52:44;3.15;;;1.80;;
19566;SDS011;9930;49.240;8.548;2024-02-15T09:55:12;2.85;;;2.55;;
19566;SDS011;9930;49.240;8.548;2024-02-15T09:57:43;2.50;;;2.22;;
19566;SDS011;9930;49.240;8.548;2024-02-15T10:00:14;2.75;;;1.98;;
19566;SDS011;9930;49.240;8.548;2024-02-15T10:02:41;3.17;;;1.88;;
19566;SDS011;9930;49.240;8.548;2024-02-15T10:05:17;1.67;;;1.55;;
19566;SDS011;9930;49.240;8.548;2024-02-15T10:07:43;1.80;;;1.70;;
19566;SDS011;9930;49.240;8.548;2024-02-15T10:10:18;2.70;;;1.83;;
19566;SDS011;9930;49.240;8.548;2024-02-15T10:12:47;2.92;;;1.80;;
19566;SDS011;9930;49.240;8.548;2024-02-15T10:15:29;1.85;;;1.75;;
19566;SDS011;9930;49.240;8.548;2024-02-15T10:17:57;3.28;;;1.90;;
19566;SDS011;9930;49.240;8.548;2024-02-15T10:20:24;2.55;;;1.80;;
19566;SDS011;9930;49.240;8.548;2024-02-15T10:25:28;3.85;;;2.00;;
19566;SDS011;9930;49.240;8.548;2024-02-15T10:28:04;1.65;;;1.52;;
19566;SDS011;9930;49.240;8.548;2024-02-15T10:30:34;1.70;;;1.60;;
19566;SDS011;9930;49.240;8.548;2024-02-15T10:33:03;2.25;;;1.65;;
19566;SDS011;9930;49.240;8.548;2024-02-15T10:35:29;2.10;;;1.70;;
19566;SDS011;9930;49.240;8.548;2024-02-15T10:38:09;2.00;;;1.80;;
19566;SDS011;9930;49.240;8.548;2024-02-15T10:40:38;1.55;;;1.42;;
19566;SDS011;9930;49.240;8.548;2024-02-15T10:43:07;1.77;;;1.40;;
19566;SDS011;9930;49.240;8.548;2024-02-15T10:45:38;2.22;;;1.80;;
19566;SDS011;9930;49.240;8.548;2024-02-15T10:48:07;2.53;;;1.70;;
19566;SDS011;9930;49.240;8.548;2024-02-15T10:50:34;2.40;;;1.50;;
19566;SDS011;9930;49.240;8.548;2024-02-15T10:53:03;2.28;;;1.80;;
19566;SDS011;9930;49.240;8.548;2024-02-15T10:58:41;1.90;;;1.50;;
19566;SDS011;9930;49.240;8.548;2024-02-15T11:01:18;2.40;;;1.45;;
19566;SDS011;9930;49.240;8.548;2024-02-15T11:04:04;3.83;;;2.00;;
19566;SDS011;9930;49.240;8.548;2024-02-15T11:06:34;2.03;;;1.50;;
19566;SDS011;9930;49.240;8.548;2024-02-15T11:09:06;2.30;;;1.50;;
19566;SDS011;9930;49.240;8.548;2024-02-15T11:11:34;2.33;;;1.50;;
19566;SDS011;9930;49.240;8.548;2024-02-15T11:17:09;3.28;;;2.22;;
19566;SDS011;9930;49.240;8.548;2024-02-15T11:22:12;2.72;;;1.60;;
19566;SDS011;9930;49.240;8.548;2024-02-15T11:24:53;2.65;;;1.60;;
19566;SDS011;9930;49.240;8.548;2024-02-15T11:27:26;1.85;;;1.60;;
19566;SDS011;9930;49.240;8.548;2024-02-15T11:32:38;1.75;;;1.20;;
19566;SDS011;9930;49.240;8.548;2024-02-15T11:35:13;1.75;;;1.50;;
19566;SDS011;9930;49.240;8.548;2024-02-15T11:40:23;1.98;;;1.77;;
19566;SDS011;9930;49.240;8.548;2024-02-15T11:43:06;1.70;;;1.30;;
19566;SDS011;9930;49.240;8.548;2024-02-15T11:45:33;1.75;;;1.27;;
19566;SDS011;9930;49.240;8.548;2024-02-15T11:48:09;2.40;;;1.38;;
19566;SDS011;9930;49.240;8.548;2024-02-15T11:50:37;1.63;;;1.52;;
19566;SDS011;9930;49.240;8.548;2024-02-15T11:53:05;2.25;;;1.40;;
19566;SDS011;9930;49.240;8.548;2024-02-15T11:55:35;1.30;;;1.10;;
19566;SDS011;9930;49.240;8.548;2024-02-15T11:58:05;1.27;;;1.17;;
19566;SDS011;9930;49.240;8.548;2024-02-15T12:00:33;1.83;;;1.30;;
19566;SDS011;9930;49.240;8.548;2024-02-15T12:03:18;1.45;;;1.20;;
19566;SDS011;9930;49.240;8.548;2024-02-15T12:06:03;1.30;;;1.20;;
19566;SDS011;9930;49.240;8.548;2024-02-15T12:08:49;1.67;;;1.27;;
19566;SDS011;9930;49.240;8.548;2024-02-15T12:11:35;1.98;;;1.38;;
19566;SDS011;9930;49.240;8.548;2024-02-15T12:14:20;1.92;;;1.35;;
19566;SDS011;9930;49.240;8.548;2024-02-15T12:17:11;1.48;;;1.27;;
19566;SDS011;9930;49.240;8.548;2024-02-15T12:19:57;1.90;;;1.30;;
19566;SDS011;9930;49.240;8.548;2024-02-15T12:22:36;1.67;;;1.10;;
19566;SDS011;9930;49.240;8.548;2024-02-15T12:25:15;1.98;;;1.13;;
19566;SDS011;9930;49.240;8.548;2024-02-15T12:27:46;1.30;;;1.20;;
19566;SDS011;9930;49.240;8.548;2024-02-15T12:30:18;1.63;;;1.10;;
19566;SDS011;9930;49.240;8.548;2024-02-15T12:32:45;1.65;;;1.20;;
19566;SDS011;9930;49.240;8.548;2024-02-15T12:35:21;1.40;;;1.27;;
19566;SDS011;9930;49.240;8.548;2024-02-15T12:38:01;1.58;;;1.17;;
19566;SDS011;9930;49.240;8.548;2024-02-15T12:40:37;1.45;;;1.25;;
19566;SDS011;9930;49.240;8.548;2024-02-15T12:43:05;1.20;;;1.13;;
19566;SDS011;9930;49.240;8.548;2024-02-15T12:45:37;2.30;;;1.27;;
19566;SDS011;9930;49.240;8.548;2024-02-15T12:48:06;2.47;;;1.15;;
19566;SDS011;9930;49.240;8.548;2024-02-15T12:50:34;1.35;;;1.10;;
19566;SDS011;9930;49.240;8.548;2024-02-15T12:53:00;0.90;;;0.90;;
19566;SDS011;9930;49.240;8.548;2024-02-15T12:55:30;1.77;;;1.38;;
19566;SDS011;9930;49.240;8.548;2024-02-15T12:58:12;1.55;;;1.38;;
19566;SDS011;9930;49.240;8.548;2024-02-15T13:00:40;1.58;;;1.17;;
19566;SDS011;9930;49.240;8.548;2024-02-15T13:03:06;2.13;;;1.50;;
19566;SDS011;9930;49.240;8.548;2024-02-15T13:05:35;1.63;;;1.52;;
19566;SDS011;9930;49.240;8.548;2024-02-15T13:08:01;1.45;;;1.35;;
19566;SDS011;9930;49.240;8.548;2024-02-15T13:10:29;2.28;;;1.25;;
19566;SDS011;9930;49.240;8.548;2024-02-15T13:12:56;1.48;;;1.30;;
19566;SDS011;9930;49.240;8.548;2024-02-15T13:15:23;1.80;;;1.40;;
19566;SDS011;9930;49.240;8.548;2024-02-15T13:17:55;2.53;;;1.30;;
19566;SDS011;9930;49.240;8.548;2024-02-15T13:20:24;1.10;;;1.00;;
19566;SDS011;9930;49.240;8.548;2024-02-15T13:22:58;1.30;;;1.20;;
19566;SDS011;9930;49.240;8.548;2024-02-15T13:25:25;1.20;;;1.10;;
19566;SDS011;9930;49.240;8.548;2024-02-15T13:27:51;1.65;;;1.17;;
19566;SDS011;9930;49.240;8.548;2024-02-15T13:30:17;2.08;;;1.20;;
19566;SDS011;9930;49.240;8.548;2024-02-15T13:32:48;1.75;;;1.10;;
19566;SDS011;9930;49.240;8.548;2024-02-15T13:35:16;2.38;;;2.08;;
19566;SDS011;9930;49.240;8.548;2024-02-15T13:37:48;2.53;;;1.55;;
19566;SDS011;9930;49.240;8.548;2024-02-15T13:40:18;1.75;;;1.30;;
19566;SDS011;9930;49.240;8.548;2024-02-15T13:42:49;1.58;;;1.33;;
19566;SDS011;9930;49.240;8.548;2024-02-15T13:45:34;1.25;;;1.05;;
19566;SDS011;9930;49.240;8.548;2024-02-15T13:48:05;4.32;;;1.35;;
19566;SDS011;9930;49.240;8.548;2024-02-15T13:50:32;1.55;;;1.30;;
19566;SDS011;9930;49.240;8.548;2024-02-15T13:52:59;1.95;;;1.25;;
19566;SDS011;9930;49.240;8.548;2024-02-15T13:55:25;1.88;;;1.10;;
19566;SDS011;9930;49.240;8.548;2024-02-15T13:57:52;1.52;;;1.15;;
19566;SDS011;9930;49.240;8.548;2024-02-15T14:00:18;1.38;;;1.27;;
19566;SDS011;9930;49.240;8.548;2024-02-15T14:02:51;1.08;;;0.98;;
19566;SDS011;9930;49.240;8.548;2024-02-15T14:05:18;2.67;;;1.70;;
19566;SDS011;9930;49.240;8.548;2024-02-15T14:07:49;1.42;;;1.10;;
19566;SDS011;9930;49.240;8.548;2024-02-15T14:10:20;1.08;;;1.00;;
19566;SDS011;9930;49.240;8.548;2024-02-15T14:13:00;1.58;;;1.17;;
19566;SDS011;9930;49.240;8.548;2024-02-15T14:15:34;1.73;;;1.20;;
19566;SDS011;9930;49.240;8.548;2024-02-15T14:18:09;1.85;;;1.20;;
19566;SDS011;9930;49.240;8.548;2024-02-15T14:20:40;1.52;;;1.10;;
19566;SDS011;9930;49.240;8.548;2024-02-15T14:23:09;1.50;;;1.40;;
19566;SDS011;9930;49.240;8.548;2024-02-15T14:25:38;1.52;;;1.33;;
19566;SDS011;9930;49.240;8.548;2024-02-15T14:28:05;2.13;;;1.92;;
19566;SDS011;9930;49.240;8.548;2024-02-15T14:30:34;2.20;;;1.80;;
19566;SDS011;9930;49.240;8.548;2024-02-15T14:33:19;2.92;;;2.20;;
19566;SDS011;9930;49.240;8.548;2024-02-15T14:35:47;2.60;;;1.77;;
19566;SDS011;9930;49.240;8.548;2024-02-15T14:38:14;1.50;;;1.40;;
19566;SDS011;9930;49.240;8.548;2024-02-15T14:40:42;1.92;;;1.50;;
19566;SDS011;9930;49.240;8.548;2024-02-15T14:43:18;3.67;;;1.70;;
19566;SDS011;9930;49.240;8.548;2024-02-15T14:45:46;3.03;;;1.48;;
19566;SDS011;9930;49.240;8.548;2024-02-15T14:48:12;1.52;;;1.35;;
19566;SDS011;9930;49.240;8.548;2024-02-15T14:50:41;1.55;;;1.30;;
19566;SDS011;9930;49.240;8.548;2024-02-15T14:53:11;2.53;;;2.15;;
19566;SDS011;9930;49.240;8.548;2024-02-15T14:55:38;2.97;;;2.13;;
19566;SDS011;9930;49.240;8.548;2024-02-15T14:58:06;2.40;;;1.95;;
19566;SDS011;9930;49.240;8.548;2024-02-15T15:00:34;2.75;;;2.05;;
19566;SDS011;9930;49.240;8.548;2024-02-15T15:03:02;2.58;;;1.70;;
19566;SDS011;9930;49.240;8.548;2024-02-15T15:05:28;3.00;;;1.45;;
19566;SDS011;9930;49.240;8.548;2024-02-15T15:08:13;2.20;;;1.85;;
19566;SDS011;9930;49.240;8.548;2024-02-15T15:10:57;3.03;;;2.25;;
19566;SDS011;9930;49.240;8.548;2024-02-15T15:13:41;2.63;;;2.40;;
19566;SDS011;9930;49.240;8.548;2024-02-15T15:16:07;4.15;;;2.70;;
19566;SDS011;9930;49.240;8.548;2024-02-15T15:18:34;3.38;;;2.55;;
19566;SDS011;9930;49.240;8.548;2024-02-15T15:21:00;3.88;;;2.80;;
19566;SDS011;9930;49.240;8.548;2024-02-15T15:23:26;3.95;;;3.55;;
19566;SDS011;9930;49.240;8.548;2024-02-15T15:25:56;4.38;;;3.95;;
19566;SDS011;9930;49.240;8.548;2024-02-15T15:28:26;3.55;;;2.80;;
19566;SDS011;9930;49.240;8.548;2024-02-15T15:30:52;2.50;;;2.30;;